sensor_id;sensor_type;location;lat;lon;timestamp;pressure;altitude;pressure_sealevel;temperature
71630;BMP280;59479;51.902;8.212;2023-06-26T00:00:17;100658.88;;;25.51
71630;BMP280;59479;51.902;8.212;2023-06-26T00:02:42;100657.97;;;25.52
71630;BMP280;59479;51.902;8.212;2023-06-26T00:05:08;100662.09;;;25.55
71630;BMP280;59479;51.902;8.212;2023-06-26T00:07:33;100660.53;;;25.52
71630;BMP280;59479;51.902;8.212;2023-06-26T00:09:59;100654.38;;;25.55
71630;BMP280;59479;51.902;8.212;2023-06-26T00:12:25;100647.31;;;25.44
71630;BMP280;59479;51.902;8.212;2023-06-26T00:14:51;100644.66;;;25.46
71630;BMP280;59479;51.902;8.212;2023-06-26T00:17:17;100647.47;;;25.41
71630;BMP280;59479;51.902;8.212;2023-06-26T00:19:43;100648.94;;;25.32
71630;BMP280;59479;51.902;8.212;2023-06-26T00:22:08;100649.50;;;25.36
71630;BMP280;59479;51.902;8.212;2023-06-26T00:24:33;100644.44;;;25.35
71630;BMP280;59479;51.902;8.212;2023-06-26T00:26:59;100637.66;;;25.34
71630;BMP280;59479;51.902;8.212;2023-06-26T00:29:24;100644.56;;;25.34
71630;BMP280;59479;51.902;8.212;2023-06-26T00:31:49;100637.75;;;25.33
71630;BMP280;59479;51.902;8.212;2023-06-26T00:34:15;100638.94;;;25.27
71630;BMP280;59479;51.902;8.212;2023-06-26T00:36:40;100632.53;;;25.20
71630;BMP280;59479;51.902;8.212;2023-06-26T00:39:09;100631.59;;;25.21
71630;BMP280;59479;51.902;8.212;2023-06-26T00:41:34;100635.81;;;25.22
71630;BMP280;59479;51.902;8.212;2023-06-26T00:44:00;100632.53;;;25.20
71630;BMP280;59479;51.902;8.212;2023-06-26T00:46:26;100638.09;;;25.13
71630;BMP280;59479;51.902;8.212;2023-06-26T00:48:52;100626.69;;;25.17
71630;BMP280;59479;51.902;8.212;2023-06-26T00:51:18;100628.53;;;25.15
71630;BMP280;59479;51.902;8.212;2023-06-26T00:53:43;100634.81;;;25.11
71630;BMP280;59479;51.902;8.212;2023-06-26T00:56:09;100621.03;;;25.12
71630;BMP280;59479;51.902;8.212;2023-06-26T00:58:35;100631.41;;;25.10
71630;BMP280;59479;51.902;8.212;2023-06-26T01:01:00;100620.47;;;25.07
71630;BMP280;59479;51.902;8.212;2023-06-26T01:03:26;100618.97;;;25.03
71630;BMP280;59479;51.902;8.212;2023-06-26T01:05:52;100615.03;;;24.97
71630;BMP280;59479;51.902;8.212;2023-06-26T01:08:19;100606.41;;;24.98
71630;BMP280;59479;51.902;8.212;2023-06-26T01:10:45;100614.34;;;24.94
71630;BMP280;59479;51.902;8.212;2023-06-26T01:13:14;100616.38;;;24.89
71630;BMP280;59479;51.902;8.212;2023-06-26T01:15:40;100612.88;;;24.90
71630;BMP280;59479;51.902;8.212;2023-06-26T01:18:06;100608.44;;;24.78
71630;BMP280;59479;51.902;8.212;2023-06-26T01:20:32;100610.28;;;24.76
71630;BMP280;59479;51.902;8.212;2023-06-26T01:28:39;100599.03;;;24.63
71630;BMP280;59479;51.902;8.212;2023-06-26T01:31:07;100590.97;;;24.55
71630;BMP280;59479;51.902;8.212;2023-06-26T01:33:32;100581.41;;;24.57
71630;BMP280;59479;51.902;8.212;2023-06-26T01:35:58;100577.56;;;24.50
71630;BMP280;59479;51.902;8.212;2023-06-26T01:38:23;100572.22;;;24.53
71630;BMP280;59479;51.902;8.212;2023-06-26T01:40:50;100577.56;;;24.50
71630;BMP280;59479;51.902;8.212;2023-06-26T01:43:29;100576.41;;;24.41
71630;BMP280;59479;51.902;8.212;2023-06-26T01:46:01;100577.59;;;24.35
71630;BMP280;59479;51.902;8.212;2023-06-26T01:48:35;100562.06;;;24.37
71630;BMP280;59479;51.902;8.212;2023-06-26T01:51:04;100565.56;;;24.36
71630;BMP280;59479;51.902;8.212;2023-06-26T01:53:36;100556.38;;;24.32
71630;BMP280;59479;51.902;8.212;2023-06-26T01:56:08;100562.00;;;24.23
71630;BMP280;59479;51.902;8.212;2023-06-26T01:58:41;100557.97;;;24.19
71630;BMP280;59479;51.902;8.212;2023-06-26T02:01:08;100562.16;;;24.20
71630;BMP280;59479;51.902;8.212;2023-06-26T02:03:33;100560.34;;;24.22
71630;BMP280;59479;51.902;8.212;2023-06-26T02:05:59;100558.44;;;24.25
71630;BMP280;59479;51.902;8.212;2023-06-26T02:08:24;100562.91;;;24.22
71630;BMP280;59479;51.902;8.212;2023-06-26T02:10:49;100559.97;;;24.14
71630;BMP280;59479;51.902;8.212;2023-06-26T02:13:15;100564.00;;;24.18
71630;BMP280;59479;51.902;8.212;2023-06-26T02:15:40;100558.78;;;24.19
71630;BMP280;59479;51.902;8.212;2023-06-26T02:18:05;100559.97;;;24.14
71630;BMP280;59479;51.902;8.212;2023-06-26T02:20:31;100551.31;;;24.15
71630;BMP280;59479;51.902;8.212;2023-06-26T02:22:58;100545.47;;;24.13
71630;BMP280;59479;51.902;8.212;2023-06-26T02:25:23;100553.97;;;24.13
71630;BMP280;59479;51.902;8.212;2023-06-26T02:27:49;100555.06;;;24.09
71630;BMP280;59479;51.902;8.212;2023-06-26T02:30:14;100541.75;;;24.03
71630;BMP280;59479;51.902;8.212;2023-06-26T02:32:39;100539.25;;;24.02
71630;BMP280;59479;51.902;8.212;2023-06-26T02:35:05;100542.84;;;23.99
71630;BMP280;59479;51.902;8.212;2023-06-26T02:37:31;100538.78;;;23.95
71630;BMP280;59479;51.902;8.212;2023-06-26T02:39:56;100536.97;;;23.97
71630;BMP280;59479;51.902;8.212;2023-06-26T02:42:21;100527.78;;;23.93
71630;BMP280;59479;51.902;8.212;2023-06-26T02:44:47;100532.16;;;23.91
71630;BMP280;59479;51.902;8.212;2023-06-26T02:47:12;100539.44;;;23.83
71630;BMP280;59479;51.902;8.212;2023-06-26T02:49:37;100545.25;;;23.87
71630;BMP280;59479;51.902;8.212;2023-06-26T02:52:03;100539.13;;;23.89
71630;BMP280;59479;51.902;8.212;2023-06-26T02:54:28;100539.69;;;23.94
71630;BMP280;59479;51.902;8.212;2023-06-26T02:56:53;100531.59;;;23.86
71630;BMP280;59479;51.902;8.212;2023-06-26T02:59:19;100530.78;;;23.86
71630;BMP280;59479;51.902;8.212;2023-06-26T03:01:44;100532.84;;;23.79
71630;BMP280;59479;51.902;8.212;2023-06-26T03:04:09;100528.13;;;23.87
71630;BMP280;59479;51.902;8.212;2023-06-26T03:06:35;100528.94;;;23.88
71630;BMP280;59479;51.902;8.212;2023-06-26T03:09:01;100533.44;;;23.84
71630;BMP280;59479;51.902;8.212;2023-06-26T03:11:27;100533.91;;;23.91
71630;BMP280;59479;51.902;8.212;2023-06-26T03:13:52;100533.25;;;23.87
71630;BMP280;59479;51.902;8.212;2023-06-26T03:16:18;100528.28;;;23.84
71630;BMP280;59479;51.902;8.212;2023-06-26T03:18:43;100527.38;;;23.85
71630;BMP280;59479;51.902;8.212;2023-06-26T03:21:08;100530.69;;;23.87
71630;BMP280;59479;51.902;8.212;2023-06-26T03:23:34;100529.03;;;23.86
71630;BMP280;59479;51.902;8.212;2023-06-26T03:25:59;100529.97;;;23.85
71630;BMP280;59479;51.902;8.212;2023-06-26T03:28:25;100527.28;;;23.87
71630;BMP280;59479;51.902;8.212;2023-06-26T03:30:50;100528.94;;;23.88
71630;BMP280;59479;51.902;8.212;2023-06-26T03:33:16;100532.41;;;23.87
71630;BMP280;59479;51.902;8.212;2023-06-26T03:35:41;100525.63;;;23.86
71630;BMP280;59479;51.902;8.212;2023-06-26T03:38:06;100534.31;;;23.83
71630;BMP280;59479;51.902;8.212;2023-06-26T03:40:32;100537.09;;;23.80
71630;BMP280;59479;51.902;8.212;2023-06-26T03:42:57;100540.63;;;23.78
71630;BMP280;59479;51.902;8.212;2023-06-26T03:45:22;100535.72;;;23.73
71630;BMP280;59479;51.902;8.212;2023-06-26T03:47:48;100542.69;;;23.71
71630;BMP280;59479;51.902;8.212;2023-06-26T03:50:17;100531.53;;;23.72
71630;BMP280;59479;51.902;8.212;2023-06-26T03:52:43;100530.72;;;23.72
71630;BMP280;59479;51.902;8.212;2023-06-26T03:55:08;100532.44;;;23.71
71630;BMP280;59479;51.902;8.212;2023-06-26T03:57:34;100535.94;;;23.70
71630;BMP280;59479;51.902;8.212;2023-06-26T03:59:59;100538.66;;;23.67
71630;BMP280;59479;51.902;8.212;2023-06-26T04:02:25;100531.94;;;23.65
71630;BMP280;59479;51.902;8.212;2023-06-26T04:04:50;100538.06;;;23.63
71630;BMP280;59479;51.902;8.212;2023-06-26T04:07:18;100535.63;;;23.60
71630;BMP280;59479;51.902;8.212;2023-06-26T04:09:44;100533.84;;;23.62
71630;BMP280;59479;51.902;8.212;2023-06-26T04:12:10;100532.34;;;23.58
71630;BMP280;59479;51.902;8.212;2023-06-26T04:14:35;100539.81;;;23.62
71630;BMP280;59479;51.902;8.212;2023-06-26T04:17:00;100529.94;;;23.55
71630;BMP280;59479;51.902;8.212;2023-06-26T04:19:29;100530.75;;;23.55
71630;BMP280;59479;51.902;8.212;2023-06-26T04:21:55;100533.06;;;23.60
71630;BMP280;59479;51.902;8.212;2023-06-26T04:24:20;100530.59;;;23.58
71630;BMP280;59479;51.902;8.212;2023-06-26T04:26:46;100533.22;;;23.57
71630;BMP280;59479;51.902;8.212;2023-06-26T04:29:11;100527.28;;;23.56
71630;BMP280;59479;51.902;8.212;2023-06-26T04:31:36;100527.19;;;23.58
71630;BMP280;59479;51.902;8.212;2023-06-26T04:34:03;100525.44;;;23.58
71630;BMP280;59479;51.902;8.212;2023-06-26T04:36:28;100530.47;;;23.61
71630;BMP280;59479;51.902;8.212;2023-06-26T04:38:56;100533.03;;;23.61
71630;BMP280;59479;51.902;8.212;2023-06-26T04:41:22;100527.81;;;23.63
71630;BMP280;59479;51.902;8.212;2023-06-26T04:43:47;100539.56;;;23.66
71630;BMP280;59479;51.902;8.212;2023-06-26T04:46:12;100534.25;;;23.69
71630;BMP280;59479;51.902;8.212;2023-06-26T04:48:37;100540.97;;;23.72
71630;BMP280;59479;51.902;8.212;2023-06-26T04:51:03;100544.19;;;23.75
71630;BMP280;59479;51.902;8.212;2023-06-26T04:53:28;100540.63;;;23.78
71630;BMP280;59479;51.902;8.212;2023-06-26T04:55:53;100542.88;;;23.84
71630;BMP280;59479;51.902;8.212;2023-06-26T04:58:19;100547.16;;;23.83
71630;BMP280;59479;51.902;8.212;2023-06-26T05:00:45;100543.44;;;23.89
71630;BMP280;59479;51.902;8.212;2023-06-26T05:03:12;100538.13;;;23.92
71630;BMP280;59479;51.902;8.212;2023-06-26T05:05:37;100543.91;;;23.95
71630;BMP280;59479;51.902;8.212;2023-06-26T05:08:22;100552.47;;;23.96
71630;BMP280;59479;51.902;8.212;2023-06-26T05:10:48;100552.88;;;24.04
71630;BMP280;59479;51.902;8.212;2023-06-26T05:13:13;100554.00;;;23.98
71630;BMP280;59479;51.902;8.212;2023-06-26T05:15:42;100556.25;;;24.04
71630;BMP280;59479;51.902;8.212;2023-06-26T05:18:08;100551.13;;;24.04
71630;BMP280;59479;51.902;8.212;2023-06-26T05:20:34;100544.69;;;23.97
71630;BMP280;59479;51.902;8.212;2023-06-26T05:23:02;100550.19;;;24.05
71630;BMP280;59479;51.902;8.212;2023-06-26T05:25:29;100553.16;;;24.13
71630;BMP280;59479;51.902;8.212;2023-06-26T05:27:55;100548.59;;;24.18
71630;BMP280;59479;51.902;8.212;2023-06-26T05:30:21;100551.72;;;24.23
71630;BMP280;59479;51.902;8.212;2023-06-26T05:32:47;100552.75;;;24.05
71630;BMP280;59479;51.902;8.212;2023-06-26T05:35:13;100551.94;;;24.05
71630;BMP280;59479;51.902;8.212;2023-06-26T05:37:38;100564.16;;;24.15
71630;BMP280;59479;51.902;8.212;2023-06-26T05:40:05;100555.91;;;24.10
71630;BMP280;59479;51.902;8.212;2023-06-26T05:42:30;100564.09;;;24.16
71630;BMP280;59479;51.902;8.212;2023-06-26T05:44:56;100562.78;;;24.09
71630;BMP280;59479;51.902;8.212;2023-06-26T05:47:22;100568.41;;;24.16
71630;BMP280;59479;51.902;8.212;2023-06-26T05:49:47;100571.88;;;24.15
71630;BMP280;59479;51.902;8.212;2023-06-26T05:52:13;100568.31;;;24.17
71630;BMP280;59479;51.902;8.212;2023-06-26T05:54:39;100561.69;;;24.29
71630;BMP280;59479;51.902;8.212;2023-06-26T05:57:04;100567.31;;;24.35
71630;BMP280;59479;51.902;8.212;2023-06-26T05:59:36;100569.44;;;24.43
71630;BMP280;59479;51.902;8.212;2023-06-26T06:02:02;100571.28;;;24.41
71630;BMP280;59479;51.902;8.212;2023-06-26T06:04:27;100563.91;;;24.35
71630;BMP280;59479;51.902;8.212;2023-06-26T06:06:52;100573.75;;;24.42
71630;BMP280;59479;51.902;8.212;2023-06-26T06:09:18;100572.00;;;24.43
71630;BMP280;59479;51.902;8.212;2023-06-26T06:11:43;100569.94;;;24.49
71630;BMP280;59479;51.902;8.212;2023-06-26T06:14:09;100566.00;;;24.57
71630;BMP280;59479;51.902;8.212;2023-06-26T06:16:34;100569.59;;;24.69
71630;BMP280;59479;51.902;8.212;2023-06-26T06:18:59;100571.81;;;24.75
71630;BMP280;59479;51.902;8.212;2023-06-26T06:21:25;100581.00;;;24.79
71630;BMP280;59479;51.902;8.212;2023-06-26T06:23:50;100579.25;;;24.79
71630;BMP280;59479;51.902;8.212;2023-06-26T06:26:15;100595.03;;;24.73
71630;BMP280;59479;51.902;8.212;2023-06-26T06:28:41;100601.94;;;24.87
71630;BMP280;59479;51.902;8.212;2023-06-26T06:31:06;100612.41;;;24.84
71630;BMP280;59479;51.902;8.212;2023-06-26T06:33:31;100615.78;;;24.70
71630;BMP280;59479;51.902;8.212;2023-06-26T06:35:58;100626.16;;;24.69
71630;BMP280;59479;51.902;8.212;2023-06-26T06:38:23;100619.09;;;24.72
71630;BMP280;59479;51.902;8.212;2023-06-26T06:40:48;100623.09;;;24.62
71630;BMP280;59479;51.902;8.212;2023-06-26T06:43:14;100628.06;;;24.65
71630;BMP280;59479;51.902;8.212;2023-06-26T06:45:39;100634.69;;;24.69
71630;BMP280;59479;51.902;8.212;2023-06-26T06:48:05;100627.19;;;24.80
71630;BMP280;59479;51.902;8.212;2023-06-26T06:50:30;100625.69;;;24.76
71630;BMP280;59479;51.902;8.212;2023-06-26T06:52:56;100619.47;;;24.80
71630;BMP280;59479;51.902;8.212;2023-06-26T06:55:21;100610.41;;;24.89
71630;BMP280;59479;51.902;8.212;2023-06-26T06:57:47;100619.50;;;24.94
71630;BMP280;59479;51.902;8.212;2023-06-26T07:00:12;100630.47;;;24.97
71630;BMP280;59479;51.902;8.212;2023-06-26T07:02:42;100627.63;;;25.02
71630;BMP280;59479;51.902;8.212;2023-06-26T07:05:09;100631.72;;;24.91
71630;BMP280;59479;51.902;8.212;2023-06-26T07:07:35;100643.97;;;25.01
71630;BMP280;59479;51.902;8.212;2023-06-26T07:10:11;100632.44;;;24.92
71630;BMP280;59479;51.902;8.212;2023-06-26T07:12:37;100640.50;;;25.02
71630;BMP280;59479;51.902;8.212;2023-06-26T07:15:03;100633.03;;;24.97
71630;BMP280;59479;51.902;8.212;2023-06-26T07:17:33;100628.72;;;24.98
71630;BMP280;59479;51.902;8.212;2023-06-26T07:19:59;100633.69;;;25.01
71630;BMP280;59479;51.902;8.212;2023-06-26T07:22:25;100634.50;;;25.01
71630;BMP280;59479;51.902;8.212;2023-06-26T07:24:50;100635.53;;;25.13
71630;BMP280;59479;51.902;8.212;2023-06-26T07:27:15;100625.06;;;25.16
71630;BMP280;59479;51.902;8.212;2023-06-26T07:29:41;100623.59;;;25.12
71630;BMP280;59479;51.902;8.212;2023-06-26T07:32:07;100629.84;;;25.35
71630;BMP280;59479;51.902;8.212;2023-06-26T07:34:32;100651.16;;;25.37
71630;BMP280;59479;51.902;8.212;2023-06-26T07:36:58;100661.28;;;25.40
71630;BMP280;59479;51.902;8.212;2023-06-26T07:39:24;100665.41;;;25.43
71630;BMP280;59479;51.902;8.212;2023-06-26T07:41:49;100672.97;;;25.32
71630;BMP280;59479;51.902;8.212;2023-06-26T07:44:14;100676.59;;;25.28
71630;BMP280;59479;51.902;8.212;2023-06-26T07:46:39;100682.69;;;25.27
71630;BMP280;59479;51.902;8.212;2023-06-26T07:49:05;100688.75;;;25.26
71630;BMP280;59479;51.902;8.212;2023-06-26T07:51:30;100707.28;;;25.17
71630;BMP280;59479;51.902;8.212;2023-06-26T07:53:56;100717.59;;;25.17
71630;BMP280;59479;51.902;8.212;2023-06-26T07:56:21;100718.97;;;25.23
71630;BMP280;59479;51.902;8.212;2023-06-26T07:58:46;100719.13;;;25.20
71630;BMP280;59479;51.902;8.212;2023-06-26T08:01:12;100715.88;;;25.02
71630;BMP280;59479;51.902;8.212;2023-06-26T08:03:37;100715.25;;;24.99
71630;BMP280;59479;51.902;8.212;2023-06-26T08:06:02;100718.13;;;24.93
71630;BMP280;59479;51.902;8.212;2023-06-26T08:08:28;100726.69;;;24.93
71630;BMP280;59479;51.902;8.212;2023-06-26T08:10:54;100718.38;;;25.04
71630;BMP280;59479;51.902;8.212;2023-06-26T08:13:19;100729.13;;;24.95
71630;BMP280;59479;51.902;8.212;2023-06-26T08:15:44;100723.84;;;24.98
71630;BMP280;59479;51.902;8.212;2023-06-26T08:18:10;100721.41;;;24.95
71630;BMP280;59479;51.902;8.212;2023-06-26T08:20:37;100718.72;;;24.98
71630;BMP280;59479;51.902;8.212;2023-06-26T08:23:04;100712.53;;;25.16
71630;BMP280;59479;51.902;8.212;2023-06-26T08:25:29;100698.22;;;25.26
71630;BMP280;59479;51.902;8.212;2023-06-26T08:27:54;100705.75;;;25.29
71630;BMP280;59479;51.902;8.212;2023-06-26T08:30:20;100701.22;;;25.18
71630;BMP280;59479;51.902;8.212;2023-06-26T08:32:46;100702.72;;;25.36
71630;BMP280;59479;51.902;8.212;2023-06-26T08:37:40;100708.13;;;25.32
71630;BMP280;59479;51.902;8.212;2023-06-26T08:40:08;100707.22;;;25.46
71630;BMP280;59479;51.902;8.212;2023-06-26T08:42:33;100722.06;;;25.57
71630;BMP280;59479;51.902;8.212;2023-06-26T08:44:58;100725.72;;;25.39
71630;BMP280;59479;51.902;8.212;2023-06-26T08:47:24;100726.34;;;25.42
71630;BMP280;59479;51.902;8.212;2023-06-26T08:49:58;100734.06;;;25.42
71630;BMP280;59479;51.902;8.212;2023-06-26T08:52:33;100742.91;;;25.52
71630;BMP280;59479;51.902;8.212;2023-06-26T08:55:02;100759.81;;;25.56
71630;BMP280;59479;51.902;8.212;2023-06-26T08:57:28;100750.31;;;25.43
71630;BMP280;59479;51.902;8.212;2023-06-26T08:59:55;100739.38;;;25.39
71630;BMP280;59479;51.902;8.212;2023-06-26T09:02:21;100755.22;;;25.47
71630;BMP280;59479;51.902;8.212;2023-06-26T09:04:48;100755.94;;;25.49
71630;BMP280;59479;51.902;8.212;2023-06-26T09:07:14;100763.84;;;25.46
71630;BMP280;59479;51.902;8.212;2023-06-26T09:09:40;100751.13;;;25.30
71630;BMP280;59479;51.902;8.212;2023-06-26T09:12:05;100760.16;;;25.36
71630;BMP280;59479;51.902;8.212;2023-06-26T09:14:31;100763.75;;;25.48
71630;BMP280;59479;51.902;8.212;2023-06-26T09:16:57;100764.56;;;25.48
71630;BMP280;59479;51.902;8.212;2023-06-26T09:19:23;100769.78;;;25.62
71630;BMP280;59479;51.902;8.212;2023-06-26T09:21:49;100768.81;;;25.49
71630;BMP280;59479;51.902;8.212;2023-06-26T09:24:16;100755.09;;;25.64
71630;BMP280;59479;51.902;8.212;2023-06-26T09:26:41;100757.94;;;25.74
71630;BMP280;59479;51.902;8.212;2023-06-26T09:29:08;100755.56;;;25.71
71630;BMP280;59479;51.902;8.212;2023-06-26T09:31:37;100766.88;;;25.82
71630;BMP280;59479;51.902;8.212;2023-06-26T09:34:02;100760.59;;;25.86
71630;BMP280;59479;51.902;8.212;2023-06-26T09:36:29;100765.38;;;25.78
71630;BMP280;59479;51.902;8.212;2023-06-26T09:39:05;100773.00;;;25.79
71630;BMP280;59479;51.902;8.212;2023-06-26T09:41:36;100765.66;;;25.87
71630;BMP280;59479;51.902;8.212;2023-06-26T09:44:04;100754.16;;;26.07
71630;BMP280;59479;51.902;8.212;2023-06-26T09:46:30;100758.56;;;26.19
71630;BMP280;59479;51.902;8.212;2023-06-26T09:49:10;100757.81;;;26.17
71630;BMP280;59479;51.902;8.212;2023-06-26T09:51:37;100760.13;;;26.21
71630;BMP280;59479;51.902;8.212;2023-06-26T09:54:03;100751.19;;;26.13
71630;BMP280;59479;51.902;8.212;2023-06-26T09:56:29;100760.94;;;26.21
71630;BMP280;59479;51.902;8.212;2023-06-26T09:58:56;100760.88;;;26.09
71630;BMP280;59479;51.902;8.212;2023-06-26T10:01:25;100767.13;;;26.19
71630;BMP280;59479;51.902;8.212;2023-06-26T10:03:51;100758.22;;;26.24
71630;BMP280;59479;51.902;8.212;2023-06-26T10:06:33;100763.16;;;26.00
71630;BMP280;59479;51.902;8.212;2023-06-26T10:09:00;100760.28;;;26.18
71630;BMP280;59479;51.902;8.212;2023-06-26T10:11:37;100755.09;;;26.06
71630;BMP280;59479;51.902;8.212;2023-06-26T10:14:07;100753.31;;;26.34
71630;BMP280;59479;51.902;8.212;2023-06-26T10:16:34;100752.19;;;26.38
71630;BMP280;59479;51.902;8.212;2023-06-26T10:19:03;100743.22;;;26.57
71630;BMP280;59479;51.902;8.212;2023-06-26T10:21:30;100757.66;;;26.60
71630;BMP280;59479;51.902;8.212;2023-06-26T10:23:56;100768.75;;;26.48
71630;BMP280;59479;51.902;8.212;2023-06-26T10:26:24;100771.22;;;26.49
71630;BMP280;59479;51.902;8.212;2023-06-26T10:28:51;100776.75;;;26.43
71630;BMP280;59479;51.902;8.212;2023-06-26T10:31:20;100786.28;;;26.29
71630;BMP280;59479;51.902;8.212;2023-06-26T10:33:46;100785.81;;;26.09
71630;BMP280;59479;51.902;8.212;2023-06-26T10:36:17;100790.03;;;26.37
71630;BMP280;59479;51.902;8.212;2023-06-26T10:38:51;100793.16;;;26.42
71630;BMP280;59479;51.902;8.212;2023-06-26T10:41:21;100800.44;;;26.36
71630;BMP280;59479;51.902;8.212;2023-06-26T10:44:10;100800.50;;;26.48
71630;BMP280;59479;51.902;8.212;2023-06-26T10:46:53;100796.59;;;26.29
71630;BMP280;59479;51.902;8.212;2023-06-26T10:49:28;100798.03;;;26.47
71630;BMP280;59479;51.902;8.212;2023-06-26T10:51:54;100794.44;;;26.49
71630;BMP280;59479;51.902;8.212;2023-06-26T10:54:23;100804.22;;;26.30
71630;BMP280;59479;51.902;8.212;2023-06-26T10:56:50;100807.16;;;26.24
71630;BMP280;59479;51.902;8.212;2023-06-26T10:59:20;100816.97;;;26.18
71630;BMP280;59479;51.902;8.212;2023-06-26T11:01:53;100816.06;;;26.33
71630;BMP280;59479;51.902;8.212;2023-06-26T11:04:45;100806.97;;;26.27
71630;BMP280;59479;51.902;8.212;2023-06-26T11:07:23;100818.38;;;26.10
71630;BMP280;59479;51.902;8.212;2023-06-26T11:10:08;100801.81;;;26.27
71630;BMP280;59479;51.902;8.212;2023-06-26T11:12:45;100809.56;;;26.27
71630;BMP280;59479;51.902;8.212;2023-06-26T11:15:17;100814.72;;;26.27
71630;BMP280;59479;51.902;8.212;2023-06-26T11:17:44;100812.13;;;26.27
71630;BMP280;59479;51.902;8.212;2023-06-26T11:20:14;100811.78;;;26.33
71630;BMP280;59479;51.902;8.212;2023-06-26T11:22:42;100807.13;;;26.52
71630;BMP280;59479;51.902;8.212;2023-06-26T11:25:09;100801.03;;;26.67
71630;BMP280;59479;51.902;8.212;2023-06-26T11:30:08;100800.06;;;26.68
71630;BMP280;59479;51.902;8.212;2023-06-26T11:32:34;100797.06;;;26.62
71630;BMP280;59479;51.902;8.212;2023-06-26T11:35:00;100813.19;;;26.65
71630;BMP280;59479;51.902;8.212;2023-06-26T11:37:26;100815.31;;;26.59
71630;BMP280;59479;51.902;8.212;2023-06-26T11:39:51;100818.91;;;26.56
71630;BMP280;59479;51.902;8.212;2023-06-26T11:42:17;100823.31;;;26.54
71630;BMP280;59479;51.902;8.212;2023-06-26T11:44:43;100813.75;;;26.56
71630;BMP280;59479;51.902;8.212;2023-06-26T11:47:13;100827.13;;;26.75
71630;BMP280;59479;51.902;8.212;2023-06-26T11:49:42;100821.88;;;26.76
71630;BMP280;59479;51.902;8.212;2023-06-26T11:52:07;100823.44;;;26.93
71630;BMP280;59479;51.902;8.212;2023-06-26T11:54:33;100829.16;;;26.84
71630;BMP280;59479;51.902;8.212;2023-06-26T11:56:59;100845.84;;;26.78
71630;BMP280;59479;51.902;8.212;2023-06-26T11:59:37;100838.53;;;26.85
71630;BMP280;59479;51.902;8.212;2023-06-26T12:02:07;100821.28;;;26.99
71630;BMP280;59479;51.902;8.212;2023-06-26T12:04:33;100830.59;;;27.02
71630;BMP280;59479;51.902;8.212;2023-06-26T12:07:01;100818.06;;;27.22
71630;BMP280;59479;51.902;8.212;2023-06-26T12:09:29;100827.34;;;27.12
71630;BMP280;59479;51.902;8.212;2023-06-26T12:11:55;100830.34;;;27.18
71630;BMP280;59479;51.902;8.212;2023-06-26T12:14:23;100840.19;;;27.38
71630;BMP280;59479;51.902;8.212;2023-06-26T12:16:48;100837.06;;;27.47
71630;BMP280;59479;51.902;8.212;2023-06-26T12:19:14;100833.75;;;27.19
71630;BMP280;59479;51.902;8.212;2023-06-26T12:24:07;100834.53;;;27.33
71630;BMP280;59479;51.902;8.212;2023-06-26T12:26:33;100838.56;;;27.11
71630;BMP280;59479;51.902;8.212;2023-06-26T12:29:10;100840.84;;;26.89
71630;BMP280;59479;51.902;8.212;2023-06-26T12:31:43;100841.44;;;27.06
71630;BMP280;59479;51.902;8.212;2023-06-26T12:34:10;100848.31;;;27.20
71630;BMP280;59479;51.902;8.212;2023-06-26T12:36:43;100853.34;;;27.21
71630;BMP280;59479;51.902;8.212;2023-06-26T12:39:10;100865.63;;;27.18
71630;BMP280;59479;51.902;8.212;2023-06-26T12:41:59;100875.28;;;27.02
71630;BMP280;59479;51.902;8.212;2023-06-26T12:44:27;100863.59;;;27.23
71630;BMP280;59479;51.902;8.212;2023-06-26T12:46:57;100859.66;;;27.17
71630;BMP280;59479;51.902;8.212;2023-06-26T12:49:43;100861.84;;;27.23
71630;BMP280;59479;51.902;8.212;2023-06-26T12:52:10;100861.31;;;27.18
71630;BMP280;59479;51.902;8.212;2023-06-26T12:54:38;100876.84;;;27.05
71630;BMP280;59479;51.902;8.212;2023-06-26T12:57:03;100859.47;;;27.20
71630;BMP280;59479;51.902;8.212;2023-06-26T12:59:29;100865.00;;;27.14
71630;BMP280;59479;51.902;8.212;2023-06-26T13:01:55;100861.50;;;27.15
71630;BMP280;59479;51.902;8.212;2023-06-26T13:04:21;100859.59;;;27.31
71630;BMP280;59479;51.902;8.212;2023-06-26T13:06:46;100868.66;;;27.24
71630;BMP280;59479;51.902;8.212;2023-06-26T13:09:12;100865.63;;;27.18
71630;BMP280;59479;51.902;8.212;2023-06-26T13:11:37;100879.47;;;27.17
71630;BMP280;59479;51.902;8.212;2023-06-26T13:14:03;100877.81;;;27.16
71630;BMP280;59479;51.902;8.212;2023-06-26T13:16:29;100874.75;;;27.23
71630;BMP280;59479;51.902;8.212;2023-06-26T13:18:54;100879.69;;;27.26
71630;BMP280;59479;51.902;8.212;2023-06-26T13:21:21;100879.38;;;27.18
71630;BMP280;59479;51.902;8.212;2023-06-26T13:23:46;100877.34;;;27.23
71630;BMP280;59479;51.902;8.212;2023-06-26T13:26:12;100873.00;;;27.24
71630;BMP280;59479;51.902;8.212;2023-06-26T13:28:40;100864.44;;;27.23
71630;BMP280;59479;51.902;8.212;2023-06-26T13:31:06;100879.03;;;27.10
71630;BMP280;59479;51.902;8.212;2023-06-26T13:33:31;100890.19;;;27.11
71630;BMP280;59479;51.902;8.212;2023-06-26T13:35:57;100881.09;;;27.06
71630;BMP280;59479;51.902;8.212;2023-06-26T13:38:24;100889.72;;;27.18
71630;BMP280;59479;51.902;8.212;2023-06-26T13:40:54;100888.81;;;27.32
71630;BMP280;59479;51.902;8.212;2023-06-26T13:43:22;100885.47;;;27.17
71630;BMP280;59479;51.902;8.212;2023-06-26T13:45:50;100887.97;;;27.31
71630;BMP280;59479;51.902;8.212;2023-06-26T13:48:16;100890.47;;;27.33
71630;BMP280;59479;51.902;8.212;2023-06-26T13:50:41;100894.63;;;27.35
71630;BMP280;59479;51.902;8.212;2023-06-26T13:53:09;100896.13;;;27.25
71630;BMP280;59479;51.902;8.212;2023-06-26T13:55:35;100898.66;;;27.39
71630;BMP280;59479;51.902;8.212;2023-06-26T13:58:01;100891.06;;;27.50
71630;BMP280;59479;51.902;8.212;2023-06-26T14:00:30;100896.50;;;27.46
71630;BMP280;59479;51.902;8.212;2023-06-26T14:02:56;100882.56;;;27.48
71630;BMP280;59479;51.902;8.212;2023-06-26T14:05:21;100900.28;;;27.54
71630;BMP280;59479;51.902;8.212;2023-06-26T14:07:48;100891.53;;;27.69